Station: EHBK - 30/03/2020 16:55Z (il y a 20 minutes)
EHBK 301655Z AUTO 33006KT 300V010 9999 FEW040 OVC044 07/01 Q1026 NOSIG
Vent du 330º - 6 kt (vent de direction variable de 300º à 010º)
Visibilité > 10 km
Nuages épars à 4000 pieds - Ciel couvert à 4400 pieds
Température: +07ºC - Point de rosée: +01ºC - QNH: 1026 hPa
Pas de changement significatif prévu dans les 2 heures qui suivent l'observation